sensor_id;sensor_type;location;lat;lon;timestamp;P1;durP1;ratioP1;P2;durP2;ratioP2
5319;SDS011;2682;49.800;9.990;2022-09-13T00:00:28;11.25;;;8.75;;
5319;SDS011;2682;49.800;9.990;2022-09-13T00:02:56;8.75;;;8.75;;
5319;SDS011;2682;49.800;9.990;2022-09-13T00:05:22;8.50;;;8.50;;
5319;SDS011;2682;49.800;9.990;2022-09-13T00:07:49;12.00;;;9.00;;
5319;SDS011;2682;49.800;9.990;2022-09-13T00:10:15;11.25;;;10.50;;
5319;SDS011;2682;49.800;9.990;2022-09-13T00:12:42;9.00;;;8.75;;
5319;SDS011;2682;49.800;9.990;2022-09-13T00:15:09;10.25;;;9.00;;
5319;SDS011;2682;49.800;9.990;2022-09-13T00:17:35;10.75;;;10.75;;
5319;SDS011;2682;49.800;9.990;2022-09-13T00:20:04;7.50;;;6.50;;
5319;SDS011;2682;49.800;9.990;2022-09-13T00:22:32;11.50;;;11.00;;
5319;SDS011;2682;49.800;9.990;2022-09-13T00:24:58;10.50;;;8.50;;
5319;SDS011;2682;49.800;9.990;2022-09-13T00:27:25;12.25;;;11.50;;
5319;SDS011;2682;49.800;9.990;2022-09-13T00:29:51;11.50;;;11.00;;
5319;SDS011;2682;49.800;9.990;2022-09-13T00:32:18;10.75;;;10.75;;
5319;SDS011;2682;49.800;9.990;2022-09-13T00:34:44;11.75;;;9.00;;
5319;SDS011;2682;49.800;9.990;2022-09-13T00:37:12;13.00;;;10.75;;
5319;SDS011;2682;49.800;9.990;2022-09-13T00:39:38;12.00;;;10.50;;
5319;SDS011;2682;49.800;9.990;2022-09-13T00:42:07;11.50;;;11.00;;
5319;SDS011;2682;49.800;9.990;2022-09-13T00:47:27;11.00;;;10.50;;
5319;SDS011;2682;49.800;9.990;2022-09-13T00:49:57;10.50;;;9.00;;
5319;SDS011;2682;49.800;9.990;2022-09-13T00:52:27;12.00;;;10.50;;
5319;SDS011;2682;49.800;9.990;2022-09-13T00:54:57;11.50;;;11.25;;
5319;SDS011;2682;49.800;9.990;2022-09-13T00:57:24;14.00;;;11.50;;
5319;SDS011;2682;49.800;9.990;2022-09-13T00:59:52;11.00;;;9.75;;
5319;SDS011;2682;49.800;9.990;2022-09-13T01:02:21;9.75;;;8.25;;
5319;SDS011;2682;49.800;9.990;2022-09-13T01:04:48;9.25;;;9.00;;
5319;SDS011;2682;49.800;9.990;2022-09-13T01:07:15;12.00;;;10.50;;
5319;SDS011;2682;49.800;9.990;2022-09-13T01:09:44;10.50;;;9.75;;
5319;SDS011;2682;49.800;9.990;2022-09-13T01:12:13;8.75;;;7.00;;
5319;SDS011;2682;49.800;9.990;2022-09-13T01:14:42;12.75;;;12.00;;
5319;SDS011;2682;49.800;9.990;2022-09-13T01:17:09;10.75;;;9.75;;
5319;SDS011;2682;49.800;9.990;2022-09-13T01:19:35;9.50;;;8.25;;
5319;SDS011;2682;49.800;9.990;2022-09-13T01:22:09;7.25;;;7.25;;
5319;SDS011;2682;49.800;9.990;2022-09-13T01:24:55;10.25;;;8.50;;
5319;SDS011;2682;49.800;9.990;2022-09-13T01:27:29;11.00;;;10.50;;
5319;SDS011;2682;49.800;9.990;2022-09-13T01:30:12;11.00;;;10.25;;
5319;SDS011;2682;49.800;9.990;2022-09-13T01:32:43;10.50;;;9.75;;
5319;SDS011;2682;49.800;9.990;2022-09-13T01:35:15;10.25;;;9.75;;
5319;SDS011;2682;49.800;9.990;2022-09-13T01:37:50;10.00;;;9.50;;
5319;SDS011;2682;49.800;9.990;2022-09-13T01:40:22;10.25;;;9.50;;
5319;SDS011;2682;49.800;9.990;2022-09-13T01:43:01;9.50;;;9.50;;
5319;SDS011;2682;49.800;9.990;2022-09-13T01:45:35;12.50;;;12.50;;
5319;SDS011;2682;49.800;9.990;2022-09-13T01:48:06;11.00;;;10.25;;
5319;SDS011;2682;49.800;9.990;2022-09-13T01:50:35;11.50;;;10.75;;
5319;SDS011;2682;49.800;9.990;2022-09-13T01:53:06;18.00;;;13.50;;
5319;SDS011;2682;49.800;9.990;2022-09-13T01:55:34;13.25;;;11.00;;
5319;SDS011;2682;49.800;9.990;2022-09-13T01:58:07;11.25;;;10.00;;
5319;SDS011;2682;49.800;9.990;2022-09-13T02:00:38;13.25;;;13.00;;
5319;SDS011;2682;49.800;9.990;2022-09-13T02:03:10;12.75;;;10.00;;
5319;SDS011;2682;49.800;9.990;2022-09-13T02:05:39;10.50;;;10.00;;
5319;SDS011;2682;49.800;9.990;2022-09-13T02:08:07;12.50;;;10.50;;
5319;SDS011;2682;49.800;9.990;2022-09-13T02:10:36;10.25;;;10.25;;
5319;SDS011;2682;49.800;9.990;2022-09-13T02:13:04;13.75;;;13.00;;
5319;SDS011;2682;49.800;9.990;2022-09-13T02:15:33;11.50;;;11.25;;
5319;SDS011;2682;49.800;9.990;2022-09-13T02:18:04;11.00;;;11.00;;
5319;SDS011;2682;49.800;9.990;2022-09-13T02:20:34;15.50;;;14.00;;
5319;SDS011;2682;49.800;9.990;2022-09-13T02:23:03;13.00;;;12.75;;
5319;SDS011;2682;49.800;9.990;2022-09-13T02:25:33;12.00;;;12.00;;
5319;SDS011;2682;49.800;9.990;2022-09-13T02:28:02;10.75;;;10.25;;
5319;SDS011;2682;49.800;9.990;2022-09-13T02:30:31;11.50;;;9.00;;
5319;SDS011;2682;49.800;9.990;2022-09-13T02:32:59;13.25;;;11.00;;
5319;SDS011;2682;49.800;9.990;2022-09-13T02:35:29;11.50;;;10.75;;
5319;SDS011;2682;49.800;9.990;2022-09-13T02:37:59;11.50;;;11.00;;
5319;SDS011;2682;49.800;9.990;2022-09-13T02:40:29;13.00;;;10.00;;
5319;SDS011;2682;49.800;9.990;2022-09-13T02:42:59;11.00;;;10.75;;
5319;SDS011;2682;49.800;9.990;2022-09-13T02:45:28;10.50;;;10.00;;
5319;SDS011;2682;49.800;9.990;2022-09-13T02:47:57;11.50;;;10.00;;
5319;SDS011;2682;49.800;9.990;2022-09-13T02:50:29;9.00;;;9.00;;
5319;SDS011;2682;49.800;9.990;2022-09-13T02:53:00;10.25;;;8.50;;
5319;SDS011;2682;49.800;9.990;2022-09-13T02:55:29;10.00;;;8.00;;
5319;SDS011;2682;49.800;9.990;2022-09-13T02:57:59;11.00;;;9.00;;
5319;SDS011;2682;49.800;9.990;2022-09-13T03:00:27;10.00;;;10.00;;
5319;SDS011;2682;49.800;9.990;2022-09-13T03:02:55;11.00;;;11.00;;
5319;SDS011;2682;49.800;9.990;2022-09-13T03:05:21;11.25;;;10.00;;
5319;SDS011;2682;49.800;9.990;2022-09-13T03:07:49;11.00;;;11.00;;
5319;SDS011;2682;49.800;9.990;2022-09-13T03:10:17;8.25;;;7.00;;
5319;SDS011;2682;49.800;9.990;2022-09-13T03:12:51;13.25;;;12.50;;
5319;SDS011;2682;49.800;9.990;2022-09-13T03:15:23;11.25;;;8.00;;
5319;SDS011;2682;49.800;9.990;2022-09-13T03:17:57;8.00;;;8.00;;
5319;SDS011;2682;49.800;9.990;2022-09-13T03:20:31;13.00;;;10.75;;
5319;SDS011;2682;49.800;9.990;2022-09-13T03:23:22;10.00;;;10.00;;
5319;SDS011;2682;49.800;9.990;2022-09-13T03:25:58;12.00;;;12.00;;
5319;SDS011;2682;49.800;9.990;2022-09-13T03:28:31;10.00;;;8.00;;
5319;SDS011;2682;49.800;9.990;2022-09-13T03:31:06;11.25;;;9.00;;
5319;SDS011;2682;49.800;9.990;2022-09-13T03:33:37;11.50;;;11.00;;
5319;SDS011;2682;49.800;9.990;2022-09-13T03:36:09;9.50;;;9.50;;
5319;SDS011;2682;49.800;9.990;2022-09-13T03:38:40;10.00;;;9.00;;
5319;SDS011;2682;49.800;9.990;2022-09-13T03:41:09;15.75;;;11.00;;
5319;SDS011;2682;49.800;9.990;2022-09-13T03:43:37;9.75;;;8.75;;
5319;SDS011;2682;49.800;9.990;2022-09-13T03:46:08;10.75;;;10.00;;
5319;SDS011;2682;49.800;9.990;2022-09-13T03:48:36;9.50;;;9.50;;
5319;SDS011;2682;49.800;9.990;2022-09-13T03:51:04;9.00;;;9.00;;
5319;SDS011;2682;49.800;9.990;2022-09-13T03:53:32;11.25;;;10.00;;
5319;SDS011;2682;49.800;9.990;2022-09-13T03:56:03;13.00;;;11.00;;
5319;SDS011;2682;49.800;9.990;2022-09-13T03:58:36;8.25;;;8.25;;
5319;SDS011;2682;49.800;9.990;2022-09-13T04:01:03;9.50;;;8.25;;
5319;SDS011;2682;49.800;9.990;2022-09-13T04:03:29;10.00;;;9.50;;
5319;SDS011;2682;49.800;9.990;2022-09-13T04:05:56;8.50;;;7.75;;
5319;SDS011;2682;49.800;9.990;2022-09-13T04:08:22;10.00;;;10.00;;
5319;SDS011;2682;49.800;9.990;2022-09-13T04:10:49;12.00;;;11.00;;
5319;SDS011;2682;49.800;9.990;2022-09-13T04:13:17;11.00;;;9.50;;
5319;SDS011;2682;49.800;9.990;2022-09-13T04:15:46;10.00;;;10.00;;
5319;SDS011;2682;49.800;9.990;2022-09-13T04:18:12;10.00;;;7.50;;
5319;SDS011;2682;49.800;9.990;2022-09-13T04:20:39;9.75;;;8.75;;
5319;SDS011;2682;49.800;9.990;2022-09-13T04:23:05;8.25;;;7.75;;
5319;SDS011;2682;49.800;9.990;2022-09-13T04:25:31;10.75;;;10.00;;
5319;SDS011;2682;49.800;9.990;2022-09-13T04:27:58;10.25;;;10.00;;
5319;SDS011;2682;49.800;9.990;2022-09-13T04:30:26;8.00;;;8.00;;
5319;SDS011;2682;49.800;9.990;2022-09-13T04:32:54;9.50;;;8.25;;
5319;SDS011;2682;49.800;9.990;2022-09-13T04:35:23;12.00;;;10.00;;
5319;SDS011;2682;49.800;9.990;2022-09-13T04:37:50;10.00;;;10.00;;
5319;SDS011;2682;49.800;9.990;2022-09-13T04:40:16;9.25;;;9.25;;
5319;SDS011;2682;49.800;9.990;2022-09-13T04:42:43;12.25;;;11.00;;
5319;SDS011;2682;49.800;9.990;2022-09-13T04:45:10;11.50;;;10.00;;
5319;SDS011;2682;49.800;9.990;2022-09-13T04:47:38;9.00;;;8.25;;
5319;SDS011;2682;49.800;9.990;2022-09-13T04:50:04;7.00;;;7.00;;
5319;SDS011;2682;49.800;9.990;2022-09-13T04:52:31;11.75;;;11.75;;
5319;SDS011;2682;49.800;9.990;2022-09-13T04:54:58;10.50;;;9.75;;
5319;SDS011;2682;49.800;9.990;2022-09-13T04:57:25;9.75;;;9.00;;
5319;SDS011;2682;49.800;9.990;2022-09-13T04:59:52;10.75;;;10.00;;
5319;SDS011;2682;49.800;9.990;2022-09-13T05:02:18;12.75;;;11.75;;
5319;SDS011;2682;49.800;9.990;2022-09-13T05:04:46;12.75;;;11.25;;
5319;SDS011;2682;49.800;9.990;2022-09-13T05:07:13;13.00;;;13.00;;
5319;SDS011;2682;49.800;9.990;2022-09-13T05:09:39;14.00;;;12.50;;
5319;SDS011;2682;49.800;9.990;2022-09-13T05:12:06;11.00;;;11.00;;
5319;SDS011;2682;49.800;9.990;2022-09-13T05:14:32;11.00;;;10.50;;
5319;SDS011;2682;49.800;9.990;2022-09-13T05:16:59;13.25;;;11.75;;
5319;SDS011;2682;49.800;9.990;2022-09-13T05:19:25;11.75;;;11.00;;
5319;SDS011;2682;49.800;9.990;2022-09-13T05:21:53;12.50;;;11.00;;
5319;SDS011;2682;49.800;9.990;2022-09-13T05:24:20;11.00;;;10.25;;
5319;SDS011;2682;49.800;9.990;2022-09-13T05:26:46;13.00;;;11.50;;
5319;SDS011;2682;49.800;9.990;2022-09-13T05:29:13;13.00;;;11.50;;
5319;SDS011;2682;49.800;9.990;2022-09-13T05:31:40;13.00;;;13.00;;
5319;SDS011;2682;49.800;9.990;2022-09-13T05:34:07;12.00;;;10.25;;
5319;SDS011;2682;49.800;9.990;2022-09-13T05:36:35;13.50;;;13.00;;
5319;SDS011;2682;49.800;9.990;2022-09-13T05:39:03;11.00;;;11.00;;
5319;SDS011;2682;49.800;9.990;2022-09-13T05:41:30;10.00;;;8.75;;
5319;SDS011;2682;49.800;9.990;2022-09-13T05:43:56;12.00;;;10.75;;
5319;SDS011;2682;49.800;9.990;2022-09-13T05:46:23;11.25;;;10.50;;
5319;SDS011;2682;49.800;9.990;2022-09-13T05:48:49;13.75;;;12.75;;
5319;SDS011;2682;49.800;9.990;2022-09-13T05:51:16;14.25;;;12.50;;
5319;SDS011;2682;49.800;9.990;2022-09-13T05:53:44;15.00;;;11.75;;
5319;SDS011;2682;49.800;9.990;2022-09-13T05:56:13;14.25;;;12.75;;
5319;SDS011;2682;49.800;9.990;2022-09-13T05:58:41;11.00;;;10.75;;
5319;SDS011;2682;49.800;9.990;2022-09-13T06:01:08;13.25;;;12.25;;
5319;SDS011;2682;49.800;9.990;2022-09-13T06:03:35;12.25;;;11.50;;
5319;SDS011;2682;49.800;9.990;2022-09-13T06:06:02;13.25;;;12.00;;
5319;SDS011;2682;49.800;9.990;2022-09-13T06:08:29;11.50;;;11.00;;
5319;SDS011;2682;49.800;9.990;2022-09-13T06:10:56;12.75;;;11.00;;
5319;SDS011;2682;49.800;9.990;2022-09-13T06:13:24;14.75;;;12.25;;
5319;SDS011;2682;49.800;9.990;2022-09-13T06:15:51;12.25;;;12.00;;
5319;SDS011;2682;49.800;9.990;2022-09-13T06:18:19;13.50;;;12.00;;
5319;SDS011;2682;49.800;9.990;2022-09-13T06:20:46;13.25;;;11.75;;
5319;SDS011;2682;49.800;9.990;2022-09-13T06:23:12;14.25;;;12.25;;
5319;SDS011;2682;49.800;9.990;2022-09-13T06:25:39;14.75;;;14.00;;
5319;SDS011;2682;49.800;9.990;2022-09-13T06:28:05;13.00;;;11.50;;
5319;SDS011;2682;49.800;9.990;2022-09-13T06:30:33;14.75;;;14.00;;
5319;SDS011;2682;49.800;9.990;2022-09-13T06:33:00;13.00;;;12.25;;
5319;SDS011;2682;49.800;9.990;2022-09-13T06:35:26;14.75;;;14.25;;
5319;SDS011;2682;49.800;9.990;2022-09-13T06:37:53;12.75;;;12.75;;
5319;SDS011;2682;49.800;9.990;2022-09-13T06:40:20;13.00;;;12.00;;
5319;SDS011;2682;49.800;9.990;2022-09-13T06:42:47;12.25;;;11.75;;
5319;SDS011;2682;49.800;9.990;2022-09-13T06:45:13;13.50;;;13.50;;
5319;SDS011;2682;49.800;9.990;2022-09-13T06:47:42;17.00;;;16.25;;
5319;SDS011;2682;49.800;9.990;2022-09-13T06:50:08;13.50;;;12.00;;
5319;SDS011;2682;49.800;9.990;2022-09-13T06:52:35;10.00;;;9.00;;
5319;SDS011;2682;49.800;9.990;2022-09-13T06:55:01;11.75;;;10.75;;
5319;SDS011;2682;49.800;9.990;2022-09-13T06:57:28;12.00;;;11.75;;
5319;SDS011;2682;49.800;9.990;2022-09-13T06:59:55;11.25;;;10.25;;
5319;SDS011;2682;49.800;9.990;2022-09-13T07:02:22;10.75;;;10.25;;
5319;SDS011;2682;49.800;9.990;2022-09-13T07:04:50;12.75;;;12.00;;
5319;SDS011;2682;49.800;9.990;2022-09-13T07:07:16;13.00;;;12.50;;
5319;SDS011;2682;49.800;9.990;2022-09-13T07:09:43;14.75;;;13.50;;
5319;SDS011;2682;49.800;9.990;2022-09-13T07:12:09;11.75;;;11.00;;
5319;SDS011;2682;49.800;9.990;2022-09-13T07:14:36;13.75;;;13.50;;
5319;SDS011;2682;49.800;9.990;2022-09-13T07:17:02;12.00;;;11.25;;
5319;SDS011;2682;49.800;9.990;2022-09-13T07:19:29;10.75;;;10.00;;
5319;SDS011;2682;49.800;9.990;2022-09-13T07:21:57;14.00;;;14.00;;
5319;SDS011;2682;49.800;9.990;2022-09-13T07:24:24;13.75;;;13.25;;
5319;SDS011;2682;49.800;9.990;2022-09-13T07:26:51;12.25;;;10.75;;
5319;SDS011;2682;49.800;9.990;2022-09-13T07:29:18;12.75;;;12.00;;
5319;SDS011;2682;49.800;9.990;2022-09-13T07:31:48;14.00;;;13.25;;
5319;SDS011;2682;49.800;9.990;2022-09-13T07:34:15;10.75;;;10.50;;
5319;SDS011;2682;49.800;9.990;2022-09-13T07:36:42;14.25;;;13.00;;
5319;SDS011;2682;49.800;9.990;2022-09-13T07:39:12;13.00;;;11.00;;
5319;SDS011;2682;49.800;9.990;2022-09-13T07:41:39;15.75;;;15.00;;
5319;SDS011;2682;49.800;9.990;2022-09-13T07:44:05;16.00;;;16.00;;
5319;SDS011;2682;49.800;9.990;2022-09-13T07:46:33;14.25;;;14.25;;
5319;SDS011;2682;49.800;9.990;2022-09-13T07:49:00;12.75;;;12.50;;
5319;SDS011;2682;49.800;9.990;2022-09-13T07:51:28;14.25;;;13.50;;
5319;SDS011;2682;49.800;9.990;2022-09-13T07:53:55;16.75;;;15.75;;
5319;SDS011;2682;49.800;9.990;2022-09-13T07:56:24;12.50;;;11.00;;
5319;SDS011;2682;49.800;9.990;2022-09-13T07:58:51;17.50;;;15.25;;
5319;SDS011;2682;49.800;9.990;2022-09-13T08:01:19;16.00;;;15.25;;
5319;SDS011;2682;49.800;9.990;2022-09-13T08:03:49;13.75;;;12.50;;
5319;SDS011;2682;49.800;9.990;2022-09-13T08:06:16;15.25;;;12.75;;
5319;SDS011;2682;49.800;9.990;2022-09-13T08:08:42;15.75;;;14.50;;
5319;SDS011;2682;49.800;9.990;2022-09-13T08:11:09;15.00;;;14.50;;
5319;SDS011;2682;49.800;9.990;2022-09-13T08:13:40;12.25;;;11.00;;
5319;SDS011;2682;49.800;9.990;2022-09-13T08:16:07;15.00;;;14.75;;
5319;SDS011;2682;49.800;9.990;2022-09-13T08:18:36;15.25;;;13.50;;
5319;SDS011;2682;49.800;9.990;2022-09-13T08:21:02;12.50;;;12.00;;
5319;SDS011;2682;49.800;9.990;2022-09-13T08:23:29;13.75;;;12.25;;
5319;SDS011;2682;49.800;9.990;2022-09-13T08:25:59;17.00;;;15.25;;
5319;SDS011;2682;49.800;9.990;2022-09-13T08:28:25;15.00;;;13.50;;
5319;SDS011;2682;49.800;9.990;2022-09-13T08:31:01;15.75;;;14.50;;
5319;SDS011;2682;49.800;9.990;2022-09-13T08:33:27;16.50;;;14.00;;
5319;SDS011;2682;49.800;9.990;2022-09-13T08:35:54;18.25;;;17.25;;
5319;SDS011;2682;49.800;9.990;2022-09-13T08:38:22;13.25;;;13.00;;
5319;SDS011;2682;49.800;9.990;2022-09-13T08:40:49;16.00;;;16.00;;
5319;SDS011;2682;49.800;9.990;2022-09-13T08:43:17;13.75;;;13.50;;
5319;SDS011;2682;49.800;9.990;2022-09-13T08:45:50;17.75;;;16.50;;
5319;SDS011;2682;49.800;9.990;2022-09-13T08:48:20;13.50;;;12.00;;
5319;SDS011;2682;49.800;9.990;2022-09-13T08:50:47;12.75;;;11.50;;
5319;SDS011;2682;49.800;9.990;2022-09-13T08:53:17;14.00;;;13.00;;
5319;SDS011;2682;49.800;9.990;2022-09-13T08:55:55;14.00;;;14.00;;
5319;SDS011;2682;49.800;9.990;2022-09-13T08:58:36;14.00;;;12.50;;
5319;SDS011;2682;49.800;9.990;2022-09-13T09:01:11;14.00;;;13.50;;
5319;SDS011;2682;49.800;9.990;2022-09-13T09:03:43;15.50;;;14.25;;
5319;SDS011;2682;49.800;9.990;2022-09-13T09:06:11;16.75;;;15.25;;
5319;SDS011;2682;49.800;9.990;2022-09-13T09:08:39;15.00;;;12.50;;
5319;SDS011;2682;49.800;9.990;2022-09-13T09:11:08;12.50;;;12.00;;
5319;SDS011;2682;49.800;9.990;2022-09-13T09:13:40;14.50;;;12.50;;
5319;SDS011;2682;49.800;9.990;2022-09-13T09:16:24;17.00;;;14.25;;
5319;SDS011;2682;49.800;9.990;2022-09-13T09:18:54;14.75;;;13.00;;
5319;SDS011;2682;49.800;9.990;2022-09-13T09:21:23;13.00;;;12.00;;
5319;SDS011;2682;49.800;9.990;2022-09-13T09:23:50;13.75;;;12.00;;
5319;SDS011;2682;49.800;9.990;2022-09-13T09:26:18;14.00;;;12.75;;
5319;SDS011;2682;49.800;9.990;2022-09-13T09:28:45;12.50;;;11.75;;
5319;SDS011;2682;49.800;9.990;2022-09-13T09:31:13;13.50;;;12.00;;
5319;SDS011;2682;49.800;9.990;2022-09-13T09:33:55;12.25;;;12.00;;
5319;SDS011;2682;49.800;9.990;2022-09-13T09:36:25;10.75;;;9.25;;
5319;SDS011;2682;49.800;9.990;2022-09-13T09:38:55;10.75;;;9.00;;
5319;SDS011;2682;49.800;9.990;2022-09-13T09:41:24;8.25;;;8.25;;
5319;SDS011;2682;49.800;9.990;2022-09-13T09:43:53;9.75;;;9.25;;
5319;SDS011;2682;49.800;9.990;2022-09-13T09:46:25;10.00;;;9.25;;
5319;SDS011;2682;49.800;9.990;2022-09-13T09:48:55;9.00;;;8.50;;
5319;SDS011;2682;49.800;9.990;2022-09-13T09:51:22;9.50;;;9.00;;
5319;SDS011;2682;49.800;9.990;2022-09-13T09:53:52;8.50;;;8.00;;
5319;SDS011;2682;49.800;9.990;2022-09-13T09:56:22;9.75;;;9.25;;
5319;SDS011;2682;49.800;9.990;2022-09-13T09:58:49;10.75;;;10.00;;
5319;SDS011;2682;49.800;9.990;2022-09-13T10:01:18;8.75;;;8.50;;
5319;SDS011;2682;49.800;9.990;2022-09-13T10:03:52;9.00;;;8.25;;
5319;SDS011;2682;49.800;9.990;2022-09-13T10:06:22;10.00;;;9.00;;
5319;SDS011;2682;49.800;9.990;2022-09-13T10:08:53;10.25;;;9.50;;
5319;SDS011;2682;49.800;9.990;2022-09-13T10:11:21;9.00;;;8.75;;
5319;SDS011;2682;49.800;9.990;2022-09-13T10:13:57;11.75;;;10.50;;
5319;SDS011;2682;49.800;9.990;2022-09-13T10:16:26;9.25;;;8.75;;
5319;SDS011;2682;49.800;9.990;2022-09-13T10:18:53;9.50;;;9.50;;
5319;SDS011;2682;49.800;9.990;2022-09-13T10:21:22;9.75;;;9.75;;
5319;SDS011;2682;49.800;9.990;2022-09-13T10:23:50;10.50;;;9.50;;
5319;SDS011;2682;49.800;9.990;2022-09-13T10:26:17;11.00;;;11.00;;
5319;SDS011;2682;49.800;9.990;2022-09-13T10:28:47;9.25;;;9.00;;
5319;SDS011;2682;49.800;9.990;2022-09-13T10:31:19;9.75;;;8.00;;
5319;SDS011;2682;49.800;9.990;2022-09-13T10:33:51;8.50;;;8.50;;
5319;SDS011;2682;49.800;9.990;2022-09-13T10:36:23;10.25;;;10.25;;
5319;SDS011;2682;49.800;9.990;2022-09-13T10:38:52;11.00;;;11.00;;
5319;SDS011;2682;49.800;9.990;2022-09-13T10:41:23;8.50;;;8.50;;
5319;SDS011;2682;49.800;9.990;2022-09-13T10:43:55;7.25;;;6.75;;
5319;SDS011;2682;49.800;9.990;2022-09-13T10:46:22;8.00;;;8.00;;
5319;SDS011;2682;49.800;9.990;2022-09-13T10:48:48;7.00;;;6.75;;
5319;SDS011;2682;49.800;9.990;2022-09-13T10:51:24;8.50;;;7.25;;
5319;SDS011;2682;49.800;9.990;2022-09-13T10:54:07;9.25;;;9.25;;
5319;SDS011;2682;49.800;9.990;2022-09-13T10:56:34;9.50;;;8.00;;
5319;SDS011;2682;49.800;9.990;2022-09-13T10:59:13;7.75;;;7.50;;
5319;SDS011;2682;49.800;9.990;2022-09-13T11:01:41;9.25;;;9.00;;
5319;SDS011;2682;49.800;9.990;2022-09-13T11:07:00;12.25;;;10.75;;
5319;SDS011;2682;49.800;9.990;2022-09-13T11:09:32;8.25;;;8.25;;
5319;SDS011;2682;49.800;9.990;2022-09-13T11:12:01;9.00;;;9.00;;
5319;SDS011;2682;49.800;9.990;2022-09-13T11:14:38;8.00;;;7.25;;
5319;SDS011;2682;49.800;9.990;2022-09-13T11:17:09;8.75;;;8.75;;
5319;SDS011;2682;49.800;9.990;2022-09-13T11:19:52;9.50;;;8.00;;
5319;SDS011;2682;49.800;9.990;2022-09-13T11:22:26;9.75;;;9.25;;
5319;SDS011;2682;49.800;9.990;2022-09-13T11:25:02;9.50;;;9.50;;
5319;SDS011;2682;49.800;9.990;2022-09-13T11:27:34;9.00;;;8.75;;
5319;SDS011;2682;49.800;9.990;2022-09-13T11:30:10;8.00;;;8.00;;
5319;SDS011;2682;49.800;9.990;2022-09-13T11:32:43;10.00;;;9.75;;
5319;SDS011;2682;49.800;9.990;2022-09-13T11:35:20;9.25;;;8.00;;
5319;SDS011;2682;49.800;9.990;2022-09-13T11:37:51;10.50;;;9.00;;
5319;SDS011;2682;49.800;9.990;2022-09-13T11:40:27;9.00;;;9.00;;
5319;SDS011;2682;49.800;9.990;2022-09-13T11:42:58;10.50;;;9.50;;
5319;SDS011;2682;49.800;9.990;2022-09-13T11:45:30;10.25;;;9.00;;
5319;SDS011;2682;49.800;9.990;2022-09-13T11:48:06;8.75;;;8.50;;
5319;SDS011;2682;49.800;9.990;2022-09-13T11:50:39;10.25;;;10.00;;
5319;SDS011;2682;49.800;9.990;2022-09-13T11:53:28;9.00;;;8.50;;
5319;SDS011;2682;49.800;9.990;2022-09-13T11:55:59;8.00;;;8.00;;
5319;SDS011;2682;49.800;9.990;2022-09-13T11:58:28;9.00;;;8.25;;
5319;SDS011;2682;49.800;9.990;2022-09-13T12:00:57;7.00;;;7.00;;
5319;SDS011;2682;49.800;9.990;2022-09-13T12:03:27;10.50;;;9.00;;
5319;SDS011;2682;49.800;9.990;2022-09-13T12:05:57;9.75;;;9.00;;
5319;SDS011;2682;49.800;9.990;2022-09-13T12:08:27;8.25;;;7.00;;
5319;SDS011;2682;49.800;9.990;2022-09-13T12:10:55;4.50;;;4.00;;
5319;SDS011;2682;49.800;9.990;2022-09-13T12:13:25;8.25;;;8.00;;
5319;SDS011;2682;49.800;9.990;2022-09-13T12:15:52;8.25;;;7.50;;
5319;SDS011;2682;49.800;9.990;2022-09-13T12:18:22;7.00;;;7.00;;
5319;SDS011;2682;49.800;9.990;2022-09-13T12:20:51;6.75;;;6.75;;
5319;SDS011;2682;49.800;9.990;2022-09-13T12:23:19;7.00;;;7.00;;
5319;SDS011;2682;49.800;9.990;2022-09-13T12:25:49;5.00;;;5.00;;
5319;SDS011;2682;49.800;9.990;2022-09-13T12:28:19;5.50;;;5.00;;
5319;SDS011;2682;49.800;9.990;2022-09-13T12:30:49;5.00;;;5.00;;
5319;SDS011;2682;49.800;9.990;2022-09-13T12:33:17;7.50;;;7.25;;
5319;SDS011;2682;49.800;9.990;2022-09-13T12:35:48;5.00;;;5.00;;
5319;SDS011;2682;49.800;9.990;2022-09-13T12:38:25;8.00;;;6.75;;
5319;SDS011;2682;49.800;9.990;2022-09-13T12:41:01;5.25;;;5.25;;
5319;SDS011;2682;49.800;9.990;2022-09-13T12:46:26;5.75;;;5.75;;
5319;SDS011;2682;49.800;9.990;2022-09-13T12:51:45;5.75;;;5.75;;
5319;SDS011;2682;49.800;9.990;2022-09-13T12:54:24;6.50;;;6.00;;
5319;SDS011;2682;49.800;9.990;2022-09-13T12:57:00;4.00;;;4.00;;
5319;SDS011;2682;49.800;9.990;2022-09-13T12:59:41;4.25;;;4.00;;
5319;SDS011;2682;49.800;9.990;2022-09-13T13:02:23;5.75;;;5.00;;
5319;SDS011;2682;49.800;9.990;2022-09-13T13:04:51;4.33;;;4.33;;
5319;SDS011;2682;49.800;9.990;2022-09-13T13:07:19;5.25;;;4.50;;
5319;SDS011;2682;49.800;9.990;2022-09-13T13:09:46;4.50;;;4.50;;
5319;SDS011;2682;49.800;9.990;2022-09-13T13:12:24;5.00;;;5.00;;
5319;SDS011;2682;49.800;9.990;2022-09-13T13:14:51;7.25;;;6.00;;
5319;SDS011;2682;49.800;9.990;2022-09-13T13:17:40;5.25;;;4.50;;
5319;SDS011;2682;49.800;9.990;2022-09-13T13:22:52;4.50;;;4.00;;
5319;SDS011;2682;49.800;9.990;2022-09-13T13:25:29;4.00;;;4.00;;
5319;SDS011;2682;49.800;9.990;2022-09-13T13:27:56;4.00;;;4.00;;
5319;SDS011;2682;49.800;9.990;2022-09-13T13:30:49;3.75;;;3.75;;
5319;SDS011;2682;49.800;9.990;2022-09-13T13:33:25;5.00;;;4.25;;
5319;SDS011;2682;49.800;9.990;2022-09-13T13:35:51;8.50;;;7.00;;
5319;SDS011;2682;49.800;9.990;2022-09-13T13:41:06;4.00;;;4.00;;
5319;SDS011;2682;49.800;9.990;2022-09-13T13:43:34;4.00;;;4.00;;
5319;SDS011;2682;49.800;9.990;2022-09-13T13:48:48;4.00;;;4.00;;
5319;SDS011;2682;49.800;9.990;2022-09-13T13:51:15;3.50;;;3.50;;
5319;SDS011;2682;49.800;9.990;2022-09-13T13:53:43;7.25;;;6.00;;
5319;SDS011;2682;49.800;9.990;2022-09-13T13:56:18;5.00;;;5.00;;
5319;SDS011;2682;49.800;9.990;2022-09-13T13:58:46;5.00;;;5.00;;
5319;SDS011;2682;49.800;9.990;2022-09-13T14:01:17;4.00;;;4.00;;
5319;SDS011;2682;49.800;9.990;2022-09-13T14:03:49;6.00;;;5.75;;
5319;SDS011;2682;49.800;9.990;2022-09-13T14:06:21;4.50;;;4.50;;
5319;SDS011;2682;49.800;9.990;2022-09-13T14:08:57;5.00;;;5.00;;
5319;SDS011;2682;49.800;9.990;2022-09-13T14:11:33;6.50;;;5.00;;
5319;SDS011;2682;49.800;9.990;2022-09-13T14:14:07;6.00;;;6.00;;
5319;SDS011;2682;49.800;9.990;2022-09-13T14:16:44;4.00;;;4.00;;
5319;SDS011;2682;49.800;9.990;2022-09-13T14:19:18;5.00;;;5.00;;
5319;SDS011;2682;49.800;9.990;2022-09-13T14:24:29;5.50;;;5.50;;
5319;SDS011;2682;49.800;9.990;2022-09-13T14:27:01;6.00;;;6.00;;
5319;SDS011;2682;49.800;9.990;2022-09-13T14:29:28;5.50;;;5.00;;
5319;SDS011;2682;49.800;9.990;2022-09-13T14:31:59;8.00;;;6.25;;
5319;SDS011;2682;49.800;9.990;2022-09-13T14:34:29;5.25;;;5.25;;
5319;SDS011;2682;49.800;9.990;2022-09-13T14:36:57;6.00;;;6.00;;
5319;SDS011;2682;49.800;9.990;2022-09-13T14:39:24;4.75;;;4.75;;
5319;SDS011;2682;49.800;9.990;2022-09-13T14:41:56;6.00;;;6.00;;
5319;SDS011;2682;49.800;9.990;2022-09-13T14:44:24;4.75;;;4.75;;
5319;SDS011;2682;49.800;9.990;2022-09-13T14:46:52;6.00;;;5.00;;
5319;SDS011;2682;49.800;9.990;2022-09-13T14:49:22;5.75;;;5.75;;
5319;SDS011;2682;49.800;9.990;2022-09-13T14:51:53;5.75;;;5.75;;
5319;SDS011;2682;49.800;9.990;2022-09-13T14:54:23;5.25;;;5.00;;
5319;SDS011;2682;49.800;9.990;2022-09-13T14:56:55;7.75;;;6.50;;
5319;SDS011;2682;49.800;9.990;2022-09-13T14:59:23;5.00;;;5.00;;
5319;SDS011;2682;49.800;9.990;2022-09-13T15:01:51;7.00;;;6.50;;
5319;SDS011;2682;49.800;9.990;2022-09-13T15:04:18;6.00;;;5.75;;
5319;SDS011;2682;49.800;9.990;2022-09-13T15:06:46;6.50;;;6.00;;
5319;SDS011;2682;49.800;9.990;2022-09-13T15:09:15;5.50;;;5.50;;
5319;SDS011;2682;49.800;9.990;2022-09-13T15:11:54;6.00;;;6.00;;
5319;SDS011;2682;49.800;9.990;2022-09-13T15:14:25;6.50;;;6.00;;
5319;SDS011;2682;49.800;9.990;2022-09-13T15:16:52;11.25;;;10.50;;
5319;SDS011;2682;49.800;9.990;2022-09-13T15:19:29;5.75;;;5.75;;
5319;SDS011;2682;49.800;9.990;2022-09-13T15:22:03;6.00;;;5.00;;
5319;SDS011;2682;49.800;9.990;2022-09-13T15:24:32;6.00;;;6.00;;
5319;SDS011;2682;49.800;9.990;2022-09-13T15:27:00;6.00;;;6.00;;
5319;SDS011;2682;49.800;9.990;2022-09-13T15:29:27;8.75;;;7.00;;
5319;SDS011;2682;49.800;9.990;2022-09-13T15:31:58;5.25;;;5.00;;
5319;SDS011;2682;49.800;9.990;2022-09-13T15:34:25;6.00;;;6.00;;
5319;SDS011;2682;49.800;9.990;2022-09-13T15:37:01;5.25;;;5.25;;